sensor_id;sensor_type;location;lat;lon;timestamp;P1;durP1;ratioP1;P2;durP2;ratioP2
10335;SDS011;5213;53.548;9.930;2022-10-26T00:01:33;16.20;;;10.57;;
10335;SDS011;5213;53.548;9.930;2022-10-26T00:03:59;15.05;;;10.05;;
10335;SDS011;5213;53.548;9.930;2022-10-26T00:06:25;17.90;;;10.82;;
10335;SDS011;5213;53.548;9.930;2022-10-26T00:08:54;19.55;;;10.68;;
10335;SDS011;5213;53.548;9.930;2022-10-26T00:11:21;12.00;;;9.60;;
10335;SDS011;5213;53.548;9.930;2022-10-26T00:13:47;15.93;;;10.07;;
10335;SDS011;5213;53.548;9.930;2022-10-26T00:16:24;18.35;;;9.88;;
10335;SDS011;5213;53.548;9.930;2022-10-26T00:18:50;16.65;;;10.10;;
10335;SDS011;5213;53.548;9.930;2022-10-26T00:21:17;15.77;;;10.10;;
10335;SDS011;5213;53.548;9.930;2022-10-26T00:23:43;14.43;;;10.05;;
10335;SDS011;5213;53.548;9.930;2022-10-26T00:26:09;14.40;;;10.07;;
10335;SDS011;5213;53.548;9.930;2022-10-26T00:28:35;14.55;;;9.55;;
10335;SDS011;5213;53.548;9.930;2022-10-26T00:31:02;15.07;;;9.65;;
10335;SDS011;5213;53.548;9.930;2022-10-26T00:33:29;12.90;;;9.60;;
10335;SDS011;5213;53.548;9.930;2022-10-26T00:35:55;18.20;;;9.85;;
10335;SDS011;5213;53.548;9.930;2022-10-26T00:38:21;14.93;;;10.07;;
10335;SDS011;5213;53.548;9.930;2022-10-26T00:40:47;21.23;;;11.60;;
10335;SDS011;5213;53.548;9.930;2022-10-26T00:43:14;18.52;;;10.30;;
10335;SDS011;5213;53.548;9.930;2022-10-26T00:45:41;17.05;;;10.52;;
10335;SDS011;5213;53.548;9.930;2022-10-26T00:48:10;18.02;;;10.48;;
10335;SDS011;5213;53.548;9.930;2022-10-26T00:50:40;16.30;;;10.65;;
10335;SDS011;5213;53.548;9.930;2022-10-26T00:53:07;17.17;;;10.68;;
10335;SDS011;5213;53.548;9.930;2022-10-26T00:55:36;15.07;;;11.18;;
10335;SDS011;5213;53.548;9.930;2022-10-26T00:58:03;19.63;;;10.73;;
10335;SDS011;5213;53.548;9.930;2022-10-26T01:00:30;19.27;;;10.23;;
10335;SDS011;5213;53.548;9.930;2022-10-26T01:02:56;18.90;;;11.07;;
10335;SDS011;5213;53.548;9.930;2022-10-26T01:05:24;18.15;;;11.50;;
10335;SDS011;5213;53.548;9.930;2022-10-26T01:07:50;19.85;;;11.18;;
10335;SDS011;5213;53.548;9.930;2022-10-26T01:10:17;18.88;;;10.70;;
10335;SDS011;5213;53.548;9.930;2022-10-26T01:12:43;18.80;;;11.05;;
10335;SDS011;5213;53.548;9.930;2022-10-26T01:15:09;19.25;;;11.13;;
10335;SDS011;5213;53.548;9.930;2022-10-26T01:17:46;21.63;;;11.32;;
10335;SDS011;5213;53.548;9.930;2022-10-26T01:23:37;18.60;;;10.63;;
10335;SDS011;5213;53.548;9.930;2022-10-26T01:28:00;21.30;;;11.32;;
10335;SDS011;5213;53.548;9.930;2022-10-26T01:30:40;21.88;;;11.77;;
10335;SDS011;5213;53.548;9.930;2022-10-26T01:33:51;16.65;;;11.32;;
10335;SDS011;5213;53.548;9.930;2022-10-26T01:43:22;21.42;;;12.23;;
10335;SDS011;5213;53.548;9.930;2022-10-26T01:45:50;19.70;;;11.63;;
10335;SDS011;5213;53.548;9.930;2022-10-26T01:48:17;20.45;;;11.50;;
10335;SDS011;5213;53.548;9.930;2022-10-26T01:50:46;17.90;;;11.68;;
10335;SDS011;5213;53.548;9.930;2022-10-26T01:53:13;18.17;;;11.88;;
10335;SDS011;5213;53.548;9.930;2022-10-26T01:58:12;21.08;;;12.95;;
10335;SDS011;5213;53.548;9.930;2022-10-26T02:00:45;20.95;;;12.70;;
10335;SDS011;5213;53.548;9.930;2022-10-26T02:03:14;23.00;;;13.52;;
10335;SDS011;5213;53.548;9.930;2022-10-26T02:05:54;23.23;;;13.18;;
10335;SDS011;5213;53.548;9.930;2022-10-26T02:08:26;21.05;;;12.68;;
10335;SDS011;5213;53.548;9.930;2022-10-26T02:13:46;24.55;;;12.77;;
10335;SDS011;5213;53.548;9.930;2022-10-26T02:16:23;22.10;;;12.45;;
10335;SDS011;5213;53.548;9.930;2022-10-26T02:19:51;20.77;;;13.20;;
10335;SDS011;5213;53.548;9.930;2022-10-26T02:21:47;21.27;;;12.80;;
10335;SDS011;5213;53.548;9.930;2022-10-26T02:24:15;21.60;;;12.82;;
10335;SDS011;5213;53.548;9.930;2022-10-26T02:26:42;21.17;;;12.63;;
10335;SDS011;5213;53.548;9.930;2022-10-26T02:29:11;21.17;;;12.38;;
10335;SDS011;5213;53.548;9.930;2022-10-26T02:31:38;25.70;;;13.27;;
10335;SDS011;5213;53.548;9.930;2022-10-26T02:34:06;24.17;;;12.75;;
10335;SDS011;5213;53.548;9.930;2022-10-26T02:36:35;25.20;;;12.77;;
10335;SDS011;5213;53.548;9.930;2022-10-26T02:39:02;23.85;;;13.30;;
10335;SDS011;5213;53.548;9.930;2022-10-26T02:41:29;24.95;;;12.02;;
10335;SDS011;5213;53.548;9.930;2022-10-26T02:44:04;23.70;;;13.10;;
10335;SDS011;5213;53.548;9.930;2022-10-26T02:46:32;19.67;;;12.02;;
10335;SDS011;5213;53.548;9.930;2022-10-26T02:48:58;19.35;;;11.68;;
10335;SDS011;5213;53.548;9.930;2022-10-26T02:53:54;22.15;;;12.82;;
10335;SDS011;5213;53.548;9.930;2022-10-26T02:56:33;21.38;;;12.45;;
10335;SDS011;5213;53.548;9.930;2022-10-26T02:59:02;23.55;;;12.88;;
10335;SDS011;5213;53.548;9.930;2022-10-26T03:01:29;22.42;;;12.68;;
10335;SDS011;5213;53.548;9.930;2022-10-26T03:03:56;18.92;;;12.35;;
10335;SDS011;5213;53.548;9.930;2022-10-26T03:06:22;21.42;;;12.07;;
10335;SDS011;5213;53.548;9.930;2022-10-26T03:08:51;24.95;;;12.75;;
10335;SDS011;5213;53.548;9.930;2022-10-26T03:11:24;18.92;;;12.65;;
10335;SDS011;5213;53.548;9.930;2022-10-26T03:13:50;24.60;;;13.05;;
10335;SDS011;5213;53.548;9.930;2022-10-26T03:16:16;25.38;;;13.68;;
10335;SDS011;5213;53.548;9.930;2022-10-26T03:18:42;26.70;;;14.27;;
10335;SDS011;5213;53.548;9.930;2022-10-26T03:21:08;24.55;;;14.05;;
10335;SDS011;5213;53.548;9.930;2022-10-26T03:23:34;23.48;;;13.52;;
10335;SDS011;5213;53.548;9.930;2022-10-26T03:26:00;25.17;;;13.98;;
10335;SDS011;5213;53.548;9.930;2022-10-26T03:28:26;26.20;;;13.50;;
10335;SDS011;5213;53.548;9.930;2022-10-26T03:30:52;25.05;;;14.13;;
10335;SDS011;5213;53.548;9.930;2022-10-26T03:33:18;24.60;;;13.38;;
10335;SDS011;5213;53.548;9.930;2022-10-26T03:35:44;29.73;;;14.48;;
10335;SDS011;5213;53.548;9.930;2022-10-26T03:38:10;25.55;;;14.73;;
10335;SDS011;5213;53.548;9.930;2022-10-26T03:40:36;27.77;;;14.63;;
10335;SDS011;5213;53.548;9.930;2022-10-26T03:43:02;25.67;;;13.90;;
10335;SDS011;5213;53.548;9.930;2022-10-26T03:45:28;27.20;;;14.50;;
10335;SDS011;5213;53.548;9.930;2022-10-26T03:47:54;29.13;;;14.55;;
10335;SDS011;5213;53.548;9.930;2022-10-26T03:50:20;25.17;;;14.27;;
10335;SDS011;5213;53.548;9.930;2022-10-26T03:52:47;27.73;;;14.35;;
10335;SDS011;5213;53.548;9.930;2022-10-26T03:55:13;24.02;;;14.02;;
10335;SDS011;5213;53.548;9.930;2022-10-26T03:57:40;25.50;;;14.23;;
10335;SDS011;5213;53.548;9.930;2022-10-26T04:00:06;23.67;;;14.02;;
10335;SDS011;5213;53.548;9.930;2022-10-26T04:02:33;23.98;;;14.43;;
10335;SDS011;5213;53.548;9.930;2022-10-26T04:04:58;30.33;;;14.32;;
10335;SDS011;5213;53.548;9.930;2022-10-26T04:07:24;26.02;;;13.48;;
10335;SDS011;5213;53.548;9.930;2022-10-26T04:09:50;26.83;;;14.27;;
10335;SDS011;5213;53.548;9.930;2022-10-26T04:12:16;33.03;;;15.77;;
10335;SDS011;5213;53.548;9.930;2022-10-26T04:14:42;29.63;;;15.48;;
10335;SDS011;5213;53.548;9.930;2022-10-26T04:17:08;31.23;;;15.73;;
10335;SDS011;5213;53.548;9.930;2022-10-26T04:19:34;32.08;;;15.55;;
10335;SDS011;5213;53.548;9.930;2022-10-26T04:22:00;29.08;;;16.33;;
10335;SDS011;5213;53.548;9.930;2022-10-26T04:24:26;32.45;;;15.73;;
10335;SDS011;5213;53.548;9.930;2022-10-26T04:26:52;28.55;;;15.75;;
10335;SDS011;5213;53.548;9.930;2022-10-26T04:29:18;32.58;;;16.45;;
10335;SDS011;5213;53.548;9.930;2022-10-26T04:31:44;31.08;;;15.80;;
10335;SDS011;5213;53.548;9.930;2022-10-26T04:34:10;36.65;;;16.92;;
10335;SDS011;5213;53.548;9.930;2022-10-26T04:36:36;31.75;;;16.50;;
10335;SDS011;5213;53.548;9.930;2022-10-26T04:39:02;32.10;;;16.45;;
10335;SDS011;5213;53.548;9.930;2022-10-26T04:41:28;31.25;;;15.73;;
10335;SDS011;5213;53.548;9.930;2022-10-26T04:43:54;34.42;;;16.83;;
10335;SDS011;5213;53.548;9.930;2022-10-26T04:46:20;30.27;;;16.55;;
10335;SDS011;5213;53.548;9.930;2022-10-26T04:48:47;33.30;;;17.35;;
10335;SDS011;5213;53.548;9.930;2022-10-26T04:51:13;31.23;;;16.40;;
10335;SDS011;5213;53.548;9.930;2022-10-26T04:53:39;35.38;;;16.50;;
10335;SDS011;5213;53.548;9.930;2022-10-26T04:56:05;32.35;;;15.55;;
10335;SDS011;5213;53.548;9.930;2022-10-26T04:58:31;30.92;;;15.88;;
10335;SDS011;5213;53.548;9.930;2022-10-26T05:00:57;34.35;;;16.33;;
10335;SDS011;5213;53.548;9.930;2022-10-26T05:03:23;35.40;;;15.95;;
10335;SDS011;5213;53.548;9.930;2022-10-26T05:05:49;34.40;;;16.00;;
10335;SDS011;5213;53.548;9.930;2022-10-26T05:08:15;33.25;;;16.73;;
10335;SDS011;5213;53.548;9.930;2022-10-26T05:10:41;30.25;;;15.45;;
10335;SDS011;5213;53.548;9.930;2022-10-26T05:13:07;28.90;;;15.40;;
10335;SDS011;5213;53.548;9.930;2022-10-26T05:15:33;29.25;;;16.30;;
10335;SDS011;5213;53.548;9.930;2022-10-26T05:18:00;25.95;;;15.18;;
10335;SDS011;5213;53.548;9.930;2022-10-26T05:20:28;28.45;;;15.38;;
10335;SDS011;5213;53.548;9.930;2022-10-26T05:22:58;30.40;;;15.40;;
10335;SDS011;5213;53.548;9.930;2022-10-26T05:25:25;28.10;;;14.55;;
10335;SDS011;5213;53.548;9.930;2022-10-26T05:27:51;27.63;;;15.32;;
10335;SDS011;5213;53.548;9.930;2022-10-26T05:30:21;29.30;;;16.52;;
10335;SDS011;5213;53.548;9.930;2022-10-26T05:32:57;32.13;;;16.65;;
10335;SDS011;5213;53.548;9.930;2022-10-26T05:35:23;32.70;;;16.48;;
10335;SDS011;5213;53.548;9.930;2022-10-26T05:37:50;29.35;;;16.67;;
10335;SDS011;5213;53.548;9.930;2022-10-26T05:40:16;34.20;;;14.80;;
10335;SDS011;5213;53.548;9.930;2022-10-26T05:42:42;31.02;;;14.90;;
10335;SDS011;5213;53.548;9.930;2022-10-26T05:45:08;30.65;;;16.13;;
10335;SDS011;5213;53.548;9.930;2022-10-26T05:47:38;31.17;;;15.77;;
10335;SDS011;5213;53.548;9.930;2022-10-26T05:50:05;31.17;;;14.60;;
10335;SDS011;5213;53.548;9.930;2022-10-26T05:52:37;38.90;;;16.55;;
10335;SDS011;5213;53.548;9.930;2022-10-26T05:55:03;36.50;;;16.60;;
10335;SDS011;5213;53.548;9.930;2022-10-26T05:57:29;36.67;;;16.45;;
10335;SDS011;5213;53.548;9.930;2022-10-26T05:59:55;38.63;;;18.35;;
10335;SDS011;5213;53.548;9.930;2022-10-26T06:02:45;36.70;;;16.15;;
10335;SDS011;5213;53.548;9.930;2022-10-26T06:05:17;41.03;;;16.77;;
10335;SDS011;5213;53.548;9.930;2022-10-26T06:07:44;31.13;;;14.77;;
10335;SDS011;5213;53.548;9.930;2022-10-26T06:10:10;39.35;;;15.95;;
10335;SDS011;5213;53.548;9.930;2022-10-26T06:12:36;46.95;;;17.15;;
10335;SDS011;5213;53.548;9.930;2022-10-26T06:15:03;68.63;;;16.77;;
10335;SDS011;5213;53.548;9.930;2022-10-26T06:17:38;38.40;;;17.27;;
10335;SDS011;5213;53.548;9.930;2022-10-26T06:20:23;51.58;;;17.75;;
10335;SDS011;5213;53.548;9.930;2022-10-26T06:23:08;38.03;;;17.52;;
10335;SDS011;5213;53.548;9.930;2022-10-26T06:25:51;44.30;;;17.70;;
10335;SDS011;5213;53.548;9.930;2022-10-26T06:28:38;34.22;;;16.15;;
10335;SDS011;5213;53.548;9.930;2022-10-26T06:31:07;29.30;;;15.20;;
10335;SDS011;5213;53.548;9.930;2022-10-26T06:33:33;32.47;;;15.55;;
10335;SDS011;5213;53.548;9.930;2022-10-26T06:38:31;30.25;;;15.70;;
10335;SDS011;5213;53.548;9.930;2022-10-26T06:40:59;31.50;;;15.60;;
10335;SDS011;5213;53.548;9.930;2022-10-26T06:43:26;30.98;;;16.60;;
10335;SDS011;5213;53.548;9.930;2022-10-26T06:46:09;29.33;;;15.55;;
10335;SDS011;5213;53.548;9.930;2022-10-26T06:51:23;29.88;;;16.40;;
10335;SDS011;5213;53.548;9.930;2022-10-26T06:56:19;32.22;;;17.70;;
10335;SDS011;5213;53.548;9.930;2022-10-26T06:58:45;31.73;;;17.73;;
10335;SDS011;5213;53.548;9.930;2022-10-26T07:01:13;29.42;;;17.60;;
10335;SDS011;5213;53.548;9.930;2022-10-26T07:03:39;28.50;;;16.35;;
10335;SDS011;5213;53.548;9.930;2022-10-26T07:06:05;27.60;;;16.38;;
10335;SDS011;5213;53.548;9.930;2022-10-26T07:08:31;27.20;;;15.20;;
10335;SDS011;5213;53.548;9.930;2022-10-26T07:10:57;32.38;;;16.27;;
10335;SDS011;5213;53.548;9.930;2022-10-26T07:13:23;27.15;;;16.23;;
10335;SDS011;5213;53.548;9.930;2022-10-26T07:15:49;27.52;;;15.93;;
10335;SDS011;5213;53.548;9.930;2022-10-26T07:18:15;26.13;;;16.02;;
10335;SDS011;5213;53.548;9.930;2022-10-26T07:20:41;27.95;;;16.20;;
10335;SDS011;5213;53.548;9.930;2022-10-26T07:23:08;28.75;;;17.33;;
10335;SDS011;5213;53.548;9.930;2022-10-26T07:25:39;32.13;;;18.05;;
10335;SDS011;5213;53.548;9.930;2022-10-26T07:28:06;27.20;;;16.50;;
10335;SDS011;5213;53.548;9.930;2022-10-26T07:30:34;26.58;;;16.88;;
10335;SDS011;5213;53.548;9.930;2022-10-26T07:33:01;31.25;;;16.85;;
10335;SDS011;5213;53.548;9.930;2022-10-26T07:35:27;28.92;;;17.30;;
10335;SDS011;5213;53.548;9.930;2022-10-26T07:37:57;29.17;;;18.98;;
10335;SDS011;5213;53.548;9.930;2022-10-26T07:40:23;30.45;;;16.05;;
10335;SDS011;5213;53.548;9.930;2022-10-26T07:42:49;20.95;;;15.05;;
10335;SDS011;5213;53.548;9.930;2022-10-26T07:45:16;21.90;;;15.07;;
10335;SDS011;5213;53.548;9.930;2022-10-26T07:47:42;21.65;;;14.43;;
10335;SDS011;5213;53.548;9.930;2022-10-26T07:50:08;18.67;;;13.02;;
10335;SDS011;5213;53.548;9.930;2022-10-26T07:52:35;18.80;;;13.27;;
10335;SDS011;5213;53.548;9.930;2022-10-26T07:55:03;20.92;;;13.50;;
10335;SDS011;5213;53.548;9.930;2022-10-26T07:57:29;24.50;;;13.30;;
10335;SDS011;5213;53.548;9.930;2022-10-26T07:59:55;16.55;;;12.77;;
10335;SDS011;5213;53.548;9.930;2022-10-26T08:02:21;19.30;;;13.32;;
10335;SDS011;5213;53.548;9.930;2022-10-26T08:04:46;21.60;;;13.65;;
10335;SDS011;5213;53.548;9.930;2022-10-26T08:07:12;17.65;;;13.25;;
10335;SDS011;5213;53.548;9.930;2022-10-26T08:09:38;19.33;;;14.27;;
10335;SDS011;5213;53.548;9.930;2022-10-26T08:12:04;21.35;;;14.63;;
10335;SDS011;5213;53.548;9.930;2022-10-26T08:14:30;19.77;;;13.73;;
10335;SDS011;5213;53.548;9.930;2022-10-26T08:16:56;20.10;;;14.40;;
10335;SDS011;5213;53.548;9.930;2022-10-26T08:19:22;20.13;;;13.93;;
10335;SDS011;5213;53.548;9.930;2022-10-26T08:21:48;17.90;;;13.30;;
10335;SDS011;5213;53.548;9.930;2022-10-26T08:24:14;19.50;;;14.18;;
10335;SDS011;5213;53.548;9.930;2022-10-26T08:26:40;17.90;;;13.55;;
10335;SDS011;5213;53.548;9.930;2022-10-26T08:29:06;17.63;;;13.60;;
10335;SDS011;5213;53.548;9.930;2022-10-26T08:31:32;18.42;;;13.10;;
10335;SDS011;5213;53.548;9.930;2022-10-26T08:33:58;20.30;;;14.25;;
10335;SDS011;5213;53.548;9.930;2022-10-26T08:36:26;17.58;;;13.25;;
10335;SDS011;5213;53.548;9.930;2022-10-26T08:38:52;19.80;;;13.70;;
10335;SDS011;5213;53.548;9.930;2022-10-26T08:41:19;18.52;;;13.40;;
10335;SDS011;5213;53.548;9.930;2022-10-26T08:43:51;16.33;;;13.63;;
10335;SDS011;5213;53.548;9.930;2022-10-26T08:46:19;18.52;;;12.45;;
10335;SDS011;5213;53.548;9.930;2022-10-26T08:48:47;17.20;;;12.65;;
10335;SDS011;5213;53.548;9.930;2022-10-26T08:51:18;16.33;;;12.10;;
10335;SDS011;5213;53.548;9.930;2022-10-26T08:53:49;16.70;;;12.55;;
10335;SDS011;5213;53.548;9.930;2022-10-26T08:56:22;18.60;;;12.40;;
10335;SDS011;5213;53.548;9.930;2022-10-26T08:58:55;16.48;;;12.25;;
10335;SDS011;5213;53.548;9.930;2022-10-26T09:01:22;19.50;;;12.82;;
10335;SDS011;5213;53.548;9.930;2022-10-26T09:03:48;15.30;;;11.55;;
10335;SDS011;5213;53.548;9.930;2022-10-26T09:06:23;15.68;;;11.07;;
10335;SDS011;5213;53.548;9.930;2022-10-26T09:08:58;14.98;;;11.32;;
10335;SDS011;5213;53.548;9.930;2022-10-26T09:11:32;16.88;;;11.73;;
10335;SDS011;5213;53.548;9.930;2022-10-26T09:24:28;14.52;;;11.68;;
10335;SDS011;5213;53.548;9.930;2022-10-26T09:29:24;14.20;;;11.57;;
10335;SDS011;5213;53.548;9.930;2022-10-26T09:31:51;14.93;;;11.82;;
10335;SDS011;5213;53.548;9.930;2022-10-26T09:34:21;14.02;;;11.65;;
10335;SDS011;5213;53.548;9.930;2022-10-26T09:36:52;14.68;;;11.40;;
10335;SDS011;5213;53.548;9.930;2022-10-26T09:39:22;15.20;;;11.35;;
10335;SDS011;5213;53.548;9.930;2022-10-26T09:41:53;14.02;;;12.07;;
10335;SDS011;5213;53.548;9.930;2022-10-26T09:45:04;14.77;;;12.07;;
10335;SDS011;5213;53.548;9.930;2022-10-26T09:49:55;14.07;;;12.30;;
10335;SDS011;5213;53.548;9.930;2022-10-26T09:52:23;18.40;;;12.05;;
10335;SDS011;5213;53.548;9.930;2022-10-26T09:54:49;14.77;;;11.23;;
10335;SDS011;5213;53.548;9.930;2022-10-26T09:57:16;13.80;;;12.10;;
10335;SDS011;5213;53.548;9.930;2022-10-26T09:59:43;16.38;;;11.55;;
10335;SDS011;5213;53.548;9.930;2022-10-26T10:04:56;15.50;;;11.68;;
10335;SDS011;5213;53.548;9.930;2022-10-26T10:07:22;16.92;;;11.63;;
10335;SDS011;5213;53.548;9.930;2022-10-26T10:12:33;14.73;;;11.35;;
10335;SDS011;5213;53.548;9.930;2022-10-26T10:14:59;11.32;;;10.13;;
10335;SDS011;5213;53.548;9.930;2022-10-26T10:17:25;13.38;;;10.35;;
10335;SDS011;5213;53.548;9.930;2022-10-26T10:19:51;12.30;;;10.75;;
10335;SDS011;5213;53.548;9.930;2022-10-26T10:22:19;18.02;;;14.95;;
10335;SDS011;5213;53.548;9.930;2022-10-26T10:25:01;11.93;;;10.73;;
10335;SDS011;5213;53.548;9.930;2022-10-26T10:27:29;13.25;;;10.35;;
10335;SDS011;5213;53.548;9.930;2022-10-26T10:30:03;12.18;;;10.15;;
10335;SDS011;5213;53.548;9.930;2022-10-26T10:32:38;10.68;;;8.70;;
10335;SDS011;5213;53.548;9.930;2022-10-26T10:35:04;11.98;;;8.65;;
10335;SDS011;5213;53.548;9.930;2022-10-26T10:37:46;8.90;;;7.53;;
10335;SDS011;5213;53.548;9.930;2022-10-26T10:40:21;9.10;;;7.25;;
10335;SDS011;5213;53.548;9.930;2022-10-26T10:42:48;10.82;;;7.70;;
10335;SDS011;5213;53.548;9.930;2022-10-26T10:45:18;10.90;;;7.53;;
10335;SDS011;5213;53.548;9.930;2022-10-26T10:47:56;11.73;;;7.85;;
10335;SDS011;5213;53.548;9.930;2022-10-26T10:50:23;10.75;;;7.35;;
10335;SDS011;5213;53.548;9.930;2022-10-26T10:52:49;11.43;;;6.97;;
10335;SDS011;5213;53.548;9.930;2022-10-26T10:55:17;8.60;;;6.72;;
10335;SDS011;5213;53.548;9.930;2022-10-26T11:00:25;9.48;;;7.45;;
10335;SDS011;5213;53.548;9.930;2022-10-26T11:08:09;8.85;;;7.68;;
10335;SDS011;5213;53.548;9.930;2022-10-26T11:10:38;9.82;;;7.25;;
10335;SDS011;5213;53.548;9.930;2022-10-26T11:13:07;12.68;;;7.22;;
10335;SDS011;5213;53.548;9.930;2022-10-26T11:15:35;8.43;;;7.28;;
10335;SDS011;5213;53.548;9.930;2022-10-26T11:18:13;10.48;;;6.50;;
10335;SDS011;5213;53.548;9.930;2022-10-26T11:20:42;10.15;;;7.47;;
10335;SDS011;5213;53.548;9.930;2022-10-26T11:23:11;8.00;;;5.97;;
10335;SDS011;5213;53.548;9.930;2022-10-26T11:25:49;9.15;;;6.55;;
10335;SDS011;5213;53.548;9.930;2022-10-26T11:30:44;7.88;;;6.10;;
10335;SDS011;5213;53.548;9.930;2022-10-26T11:33:22;8.20;;;5.75;;
10335;SDS011;5213;53.548;9.930;2022-10-26T11:35:57;7.55;;;6.35;;
10335;SDS011;5213;53.548;9.930;2022-10-26T11:41:05;8.20;;;5.47;;
10335;SDS011;5213;53.548;9.930;2022-10-26T11:43:44;8.63;;;6.10;;
10335;SDS011;5213;53.548;9.930;2022-10-26T11:49:01;8.30;;;4.78;;
10335;SDS011;5213;53.548;9.930;2022-10-26T11:54:02;7.40;;;4.60;;
10335;SDS011;5213;53.548;9.930;2022-10-26T11:56:31;7.07;;;5.13;;
10335;SDS011;5213;53.548;9.930;2022-10-26T11:58:59;7.30;;;5.57;;
10335;SDS011;5213;53.548;9.930;2022-10-26T12:01:26;6.55;;;4.60;;
10335;SDS011;5213;53.548;9.930;2022-10-26T12:03:53;6.70;;;4.50;;
10335;SDS011;5213;53.548;9.930;2022-10-26T12:06:24;5.63;;;4.63;;
10335;SDS011;5213;53.548;9.930;2022-10-26T12:09:02;5.90;;;4.82;;
10335;SDS011;5213;53.548;9.930;2022-10-26T12:11:44;5.85;;;4.40;;
10335;SDS011;5213;53.548;9.930;2022-10-26T12:16:53;6.20;;;4.15;;
10335;SDS011;5213;53.548;9.930;2022-10-26T12:19:29;7.28;;;4.53;;
10335;SDS011;5213;53.548;9.930;2022-10-26T12:21:56;6.03;;;4.13;;
10335;SDS011;5213;53.548;9.930;2022-10-26T12:26:58;5.45;;;3.78;;
10335;SDS011;5213;53.548;9.930;2022-10-26T12:35:27;6.07;;;3.50;;
10335;SDS011;5213;53.548;9.930;2022-10-26T12:37:50;5.63;;;3.83;;
10335;SDS011;5213;53.548;9.930;2022-10-26T12:43:42;6.82;;;3.70;;
10335;SDS011;5213;53.548;9.930;2022-10-26T12:45:44;4.38;;;3.50;;
10335;SDS011;5213;53.548;9.930;2022-10-26T12:48:20;4.20;;;3.22;;
10335;SDS011;5213;53.548;9.930;2022-10-26T12:50:46;5.90;;;3.78;;
10335;SDS011;5213;53.548;9.930;2022-10-26T12:53:13;4.55;;;3.38;;
10335;SDS011;5213;53.548;9.930;2022-10-26T12:58:29;6.18;;;3.40;;
10335;SDS011;5213;53.548;9.930;2022-10-26T13:03:32;5.97;;;3.25;;
10335;SDS011;5213;53.548;9.930;2022-10-26T13:08:25;5.35;;;3.33;;
10335;SDS011;5213;53.548;9.930;2022-10-26T13:10:59;5.75;;;3.65;;
10335;SDS011;5213;53.548;9.930;2022-10-26T13:13:27;7.65;;;3.15;;
10335;SDS011;5213;53.548;9.930;2022-10-26T13:15:55;7.07;;;2.78;;
10335;SDS011;5213;53.548;9.930;2022-10-26T13:18:21;5.20;;;3.03;;
10335;SDS011;5213;53.548;9.930;2022-10-26T13:20:52;4.57;;;2.40;;
10335;SDS011;5213;53.548;9.930;2022-10-26T13:23:22;3.85;;;3.00;;
10335;SDS011;5213;53.548;9.930;2022-10-26T13:31:03;6.13;;;2.80;;
10335;SDS011;5213;53.548;9.930;2022-10-26T13:33:39;5.53;;;2.60;;
10335;SDS011;5213;53.548;9.930;2022-10-26T13:38:56;6.05;;;3.03;;
10335;SDS011;5213;53.548;9.930;2022-10-26T13:41:35;5.10;;;3.08;;
10335;SDS011;5213;53.548;9.930;2022-10-26T13:44:02;3.35;;;2.55;;
10335;SDS011;5213;53.548;9.930;2022-10-26T13:46:29;6.57;;;3.03;;
10335;SDS011;5213;53.548;9.930;2022-10-26T13:49:02;3.50;;;2.60;;
10335;SDS011;5213;53.548;9.930;2022-10-26T13:51:41;5.38;;;2.85;;
10335;SDS011;5213;53.548;9.930;2022-10-26T13:56:41;7.07;;;3.00;;
10335;SDS011;5213;53.548;9.930;2022-10-26T13:59:11;5.80;;;3.20;;
10335;SDS011;5213;53.548;9.930;2022-10-26T14:01:37;5.05;;;2.90;;
10335;SDS011;5213;53.548;9.930;2022-10-26T14:04:16;4.15;;;2.50;;
10335;SDS011;5213;53.548;9.930;2022-10-26T14:06:46;3.60;;;2.85;;
10335;SDS011;5213;53.548;9.930;2022-10-26T14:09:13;7.00;;;3.33;;
10335;SDS011;5213;53.548;9.930;2022-10-26T14:11:50;8.07;;;4.20;;
10335;SDS011;5213;53.548;9.930;2022-10-26T14:16:46;5.55;;;3.20;;
10335;SDS011;5213;53.548;9.930;2022-10-26T14:19:19;7.63;;;3.40;;
10335;SDS011;5213;53.548;9.930;2022-10-26T14:21:47;5.20;;;2.97;;
10335;SDS011;5213;53.548;9.930;2022-10-26T14:24:26;6.32;;;3.05;;
10335;SDS011;5213;53.548;9.930;2022-10-26T14:26:53;7.47;;;3.30;;
10335;SDS011;5213;53.548;9.930;2022-10-26T14:29:20;3.72;;;2.80;;
10335;SDS011;5213;53.548;9.930;2022-10-26T14:31:47;3.63;;;2.92;;
10335;SDS011;5213;53.548;9.930;2022-10-26T14:34:14;6.30;;;2.50;;
10335;SDS011;5213;53.548;9.930;2022-10-26T14:36:42;4.38;;;2.40;;
10335;SDS011;5213;53.548;9.930;2022-10-26T14:39:15;5.47;;;2.80;;
10335;SDS011;5213;53.548;9.930;2022-10-26T14:41:42;4.32;;;2.50;;
10335;SDS011;5213;53.548;9.930;2022-10-26T14:44:15;7.10;;;2.75;;
10335;SDS011;5213;53.548;9.930;2022-10-26T14:46:42;5.10;;;2.85;;
10335;SDS011;5213;53.548;9.930;2022-10-26T14:49:43;6.97;;;4.75;;
10335;SDS011;5213;53.548;9.930;2022-10-26T14:52:05;5.80;;;2.63;;
10335;SDS011;5213;53.548;9.930;2022-10-26T14:54:31;3.72;;;2.70;;
10335;SDS011;5213;53.548;9.930;2022-10-26T14:56:57;5.57;;;3.00;;
10335;SDS011;5213;53.548;9.930;2022-10-26T14:59:32;5.20;;;3.25;;
10335;SDS011;5213;53.548;9.930;2022-10-26T15:02:18;8.00;;;3.28;;
10335;SDS011;5213;53.548;9.930;2022-10-26T15:07:44;3.22;;;2.85;;
10335;SDS011;5213;53.548;9.930;2022-10-26T15:12:55;3.95;;;2.80;;
10335;SDS011;5213;53.548;9.930;2022-10-26T15:15:23;3.17;;;2.88;;
10335;SDS011;5213;53.548;9.930;2022-10-26T15:17:51;7.10;;;3.15;;
10335;SDS011;5213;53.548;9.930;2022-10-26T15:20:22;3.80;;;2.53;;
10335;SDS011;5213;53.548;9.930;2022-10-26T15:22:55;3.30;;;2.70;;
10335;SDS011;5213;53.548;9.930;2022-10-26T15:25:24;4.38;;;3.00;;
10335;SDS011;5213;53.548;9.930;2022-10-26T15:27:52;4.38;;;2.55;;
10335;SDS011;5213;53.548;9.930;2022-10-26T15:32:44;5.07;;;2.20;;
10335;SDS011;5213;53.548;9.930;2022-10-26T15:37:37;5.95;;;2.60;;
10335;SDS011;5213;53.548;9.930;2022-10-26T15:40:03;3.35;;;2.60;;
10335;SDS011;5213;53.548;9.930;2022-10-26T15:42:29;5.82;;;2.80;;
10335;SDS011;5213;53.548;9.930;2022-10-26T15:44:55;4.85;;;2.65;;
10335;SDS011;5213;53.548;9.930;2022-10-26T15:47:21;4.88;;;2.58;;
10335;SDS011;5213;53.548;9.930;2022-10-26T15:49:53;2.97;;;2.60;;
10335;SDS011;5213;53.548;9.930;2022-10-26T15:52:18;8.10;;;2.95;;
10335;SDS011;5213;53.548;9.930;2022-10-26T15:54:45;4.78;;;2.45;;
10335;SDS011;5213;53.548;9.930;2022-10-26T15:57:11;3.70;;;2.65;;
10335;SDS011;5213;53.548;9.930;2022-10-26T15:59:38;4.18;;;2.70;;
10335;SDS011;5213;53.548;9.930;2022-10-26T16:02:11;4.40;;;3.13;;
10335;SDS011;5213;53.548;9.930;2022-10-26T16:04:38;3.88;;;2.75;;
10335;SDS011;5213;53.548;9.930;2022-10-26T16:07:04;6.22;;;3.20;;
10335;SDS011;5213;53.548;9.930;2022-10-26T16:09:31;12.68;;;3.58;;
10335;SDS011;5213;53.548;9.930;2022-10-26T16:11:57;9.30;;;3.40;;
10335;SDS011;5213;53.548;9.930;2022-10-26T16:14:23;7.75;;;3.63;;
10335;SDS011;5213;53.548;9.930;2022-10-26T16:16:49;7.45;;;3.30;;
10335;SDS011;5213;53.548;9.930;2022-10-26T16:19:15;5.43;;;3.13;;
10335;SDS011;5213;53.548;9.930;2022-10-26T16:21:41;6.30;;;2.90;;
10335;SDS011;5213;53.548;9.930;2022-10-26T16:24:08;4.28;;;2.85;;
10335;SDS011;5213;53.548;9.930;2022-10-26T16:26:34;4.00;;;2.90;;
10335;SDS011;5213;53.548;9.930;2022-10-26T16:29:00;6.03;;;2.83;;
10335;SDS011;5213;53.548;9.930;2022-10-26T16:31:26;6.70;;;2.95;;
10335;SDS011;5213;53.548;9.930;2022-10-26T16:33:51;4.03;;;2.88;;
10335;SDS011;5213;53.548;9.930;2022-10-26T16:36:17;3.85;;;2.83;;
10335;SDS011;5213;53.548;9.930;2022-10-26T16:38:43;5.90;;;3.55;;
10335;SDS011;5213;53.548;9.930;2022-10-26T16:41:11;5.50;;;3.00;;
10335;SDS011;5213;53.548;9.930;2022-10-26T16:43:38;6.50;;;3.55;;
10335;SDS011;5213;53.548;9.930;2022-10-26T16:46:05;7.07;;;4.03;;